Ardenvoir, Washington
Current Conditions -  °F | °C
As of 6:55 PM on Monday 26 Jan 2015 (Local Time) from KEAT Reporting Station
Moderate Fog Moderate Fog  
Wind Chill: 31°   Ceiling: 100
Heat Index: 35°   Visibility: 0.25mi
Dew Point: 34°   Wind: 5mph
Humidity: 96%   Direction: 300°WNW
Pressure: 30.01"   Gusts: NA
Location:  47.74°N, 120.37°W
Report Text: KEAT 270255Z AUTO 30004KT 1/4SM FG VV001 02/01 A3001 RMK AO2 SLP172 T00170011 58002
Loading
Personal Weather Stations






























Interactive Weather Map New forecast layout! Learn more

10-Day Weather Forecast

Advertisements
Track Severe Weather on mobile